Time;durP1;ratioP1;P1;durP2;ratioP2;P2;SDS_P1;SDS_P2;PMS_P1;PMS_P2;Temp;Humidity;BMP_temperature;BMP_pressure;BME280_temperature;BME280_humidity;BME280_pressure;Samples;Min_cycle;Max_cycle;Signal;HPM_P1;HPM_P2
2022/03/22 00:01:02;;;;;;;23.80;11.95;;;5.50;71.50;;;;;;5042400;28;20040;-66
2022/03/22 00:03:33;;;;;;;24.88;12.35;;;5.40;71.60;;;;;;5048914;28;20057;-66
2022/03/22 00:06:05;;;;;;;26.95;12.55;;;5.30;72.50;;;;;;5048327;28;20033;-68
2022/03/22 00:08:34;;;;;;;28.58;14.13;;;5.30;73.80;;;;;;5045684;28;20033;-67
2022/03/22 00:11:12;;;;;;;22.80;13.05;;;5.20;74.20;;;;;;5047200;28;20022;-66
2022/03/22 00:13:38;;;;;;;28.40;14.52;;;5.20;75.30;;;;;;5045640;28;20033;-68
2022/03/22 00:16:07;;;;;;;28.80;14.55;;;5.20;75.80;;;;;;5047811;28;20032;-67
2022/03/22 00:18:34;;;;;;;26.05;14.05;;;5.10;75.60;;;;;;5048436;28;20509;-69
2022/03/22 00:21:00;;;;;;;27.38;15.13;;;5.00;75.60;;;;;;5044904;28;20033;-68
2022/03/22 00:23:26;;;;;;;27.38;14.75;;;5.00;76.40;;;;;;5046448;28;20044;-70
2022/03/22 00:25:54;;;;;;;28.90;13.63;;;5.00;76.40;;;;;;5046308;28;20044;-68
2022/03/22 00:28:20;;;;;;;26.10;13.38;;;4.90;76.80;;;;;;5048753;28;20045;-66
2022/03/22 00:30:46;;;;;;;27.33;13.45;;;4.80;77.30;;;;;;5044992;28;20888;-66
2022/03/22 00:33:12;;;;;;;25.30;12.57;;;4.70;78.00;;;;;;5046108;28;20021;-68
2022/03/22 00:35:39;;;;;;;20.10;11.27;;;4.70;78.20;;;;;;5045707;28;20040;-67
2022/03/22 00:38:13;;;;;;;21.30;11.95;;;4.70;78.20;;;;;;5044711;28;20033;-68
2022/03/22 00:40:41;;;;;;;;;;;4.70;78.10;;;;;;5050739;28;20494;-68
2022/03/22 00:43:14;;;;;;;20.38;10.43;;;4.60;78.50;;;;;;5045854;28;19984;-66
2022/03/22 00:45:40;;;;;;;20.55;11.82;;;4.70;79.00;;;;;;5046944;28;20051;-68
2022/03/22 00:48:13;;;;;;;19.40;10.93;;;4.60;78.40;;;;;;5044182;28;20032;-67
2022/03/22 00:50:51;;;;;;;21.60;10.75;;;4.60;78.10;;;;;;5043255;28;20048;-68
2022/03/22 00:53:18;;;;;;;21.83;11.60;;;4.60;77.50;;;;;;5045289;28;20028;-67
2022/03/22 00:55:48;;;;;;;22.92;11.13;;;4.60;77.20;;;;;;5046412;28;20340;-66
2022/03/22 00:58:14;;;;;;;20.75;11.05;;;4.60;77.00;;;;;;5045654;28;20017;-66
2022/03/22 01:00:40;;;;;;;20.27;10.80;;;4.60;77.30;;;;;;5045733;28;20025;-67
2022/03/22 01:03:09;;;;;;;23.20;11.82;;;4.60;77.40;;;;;;5044135;28;20106;-67
2022/03/22 01:05:38;;;;;;;18.95;10.63;;;4.60;77.40;;;;;;5044401;28;20025;-68
2022/03/22 01:08:10;;;;;;;23.42;11.63;;;4.60;77.40;;;;;;5046361;28;20020;-67
2022/03/22 01:10:41;;;;;;;23.13;11.07;;;4.60;77.50;;;;;;5045818;28;20104;-67
2022/03/22 01:13:16;;;;;;;18.08;10.73;;;4.50;77.60;;;;;;5041910;28;20402;-67
2022/03/22 01:15:42;;;;;;;19.17;10.73;;;4.50;77.90;;;;;;5044892;28;20037;-69
2022/03/22 01:18:09;;;;;;;21.33;10.70;;;4.50;78.00;;;;;;5046093;28;20021;-67
2022/03/22 01:20:46;;;;;;;22.75;11.75;;;4.50;78.10;;;;;;5046169;28;20086;-67
2022/03/22 01:23:12;;;;;;;22.35;11.98;;;4.40;78.20;;;;;;5044151;28;20381;-67
2022/03/22 01:25:48;;;;;;;21.10;11.52;;;4.50;78.20;;;;;;5044551;28;20021;-67
2022/03/22 01:28:19;;;;;;;18.67;10.82;;;4.40;78.50;;;;;;5044683;28;20024;-68
2022/03/22 01:30:45;;;;;;;21.10;11.57;;;4.40;79.00;;;;;;5045788;28;20037;-67
2022/03/22 01:33:15;;;;;;;20.63;11.35;;;4.40;78.60;;;;;;5042860;28;20060;-67
2022/03/22 01:35:41;;;;;;;20.38;10.48;;;4.40;78.90;;;;;;5047803;28;20025;-67
2022/03/22 01:38:13;;;;;;;24.63;11.48;;;4.40;78.90;;;;;;5046950;28;20025;-67
2022/03/22 01:40:39;;;;;;;18.63;10.07;;;4.30;79.10;;;;;;5044664;28;20039;-68
2022/03/22 01:43:05;;;;;;;17.33;10.60;;;4.30;79.30;;;;;;5048194;28;20442;-68
2022/03/22 01:45:34;;;;;;;19.83;10.90;;;4.30;79.50;;;;;;5044467;28;20116;-67
2022/03/22 01:48:04;;;;;;;18.58;10.23;;;4.30;79.60;;;;;;5042412;28;20079;-66
2022/03/22 01:50:30;;;;;;;22.35;10.88;;;4.30;80.00;;;;;;5046249;28;20027;-68
2022/03/22 01:53:07;;;;;;;19.60;10.98;;;4.30;80.00;;;;;;5044914;28;20032;-68
2022/03/22 01:55:45;;;;;;;21.33;10.80;;;4.30;79.90;;;;;;5046732;28;20092;-68
2022/03/22 01:58:11;;;;;;;22.67;11.48;;;4.20;80.00;;;;;;5040154;28;21335;-67
2022/03/22 02:00:36;;;;;;;19.65;11.63;;;4.20;80.10;;;;;;5038354;28;20025;-67
2022/03/22 02:05:56;;;;;;;22.40;11.63;;;4.10;80.10;;;;;;5039993;28;20106;-67
2022/03/22 02:08:28;;;;;;;20.35;10.98;;;4.10;80.20;;;;;;5043871;28;20528;-66
2022/03/22 02:10:55;;;;;;;21.00;10.10;;;4.10;80.90;;;;;;5043888;28;20436;-66
2022/03/22 02:13:21;;;;;;;21.38;11.05;;;4.10;80.70;;;;;;5044091;28;20033;-68
2022/03/22 02:15:50;;;;;;;20.40;10.73;;;4.10;81.00;;;;;;5048149;28;20045;-67
2022/03/22 02:18:17;;;;;;;22.40;10.70;;;4.00;81.20;;;;;;5047168;28;20021;-67
2022/03/22 02:20:43;;;;;;;20.67;10.73;;;4.10;81.50;;;;;;5045855;28;20041;-67
2022/03/22 02:23:17;;;;;;;18.15;10.93;;;4.00;81.80;;;;;;5047243;28;20155;-67
2022/03/22 02:25:43;;;;;;;20.55;11.38;;;4.00;82.60;;;;;;5048585;28;20120;-68
2022/03/22 02:28:11;;;;;;;21.20;11.65;;;4.00;82.30;;;;;;5048637;28;20056;-68
2022/03/22 02:30:38;;;;;;;23.40;11.13;;;3.90;82.60;;;;;;5047405;28;20033;-68
2022/03/22 02:33:04;;;;;;;21.85;10.18;;;3.90;83.60;;;;;;5048088;28;20032;-68
2022/03/22 02:35:30;;;;;;;20.08;10.38;;;3.90;83.60;;;;;;5045944;28;20029;-68
2022/03/22 02:37:57;;;;;;;20.27;10.98;;;3.90;83.40;;;;;;5050317;28;20025;-69
2022/03/22 02:40:26;;;;;;;18.17;10.40;;;3.90;83.70;;;;;;5056996;28;20033;-68
2022/03/22 02:42:54;;;;;;;20.85;10.95;;;3.80;83.80;;;;;;5048563;28;20134;-68
2022/03/22 02:45:23;;;;;;;23.08;11.00;;;3.80;84.40;;;;;;5047697;28;20021;-68
2022/03/22 02:47:49;;;;;;;16.75;9.48;;;3.80;84.60;;;;;;5047851;28;20021;-68
2022/03/22 02:50:15;;;;;;;22.92;10.77;;;3.80;84.40;;;;;;5049817;28;20492;-67
2022/03/22 02:52:41;;;;;;;24.95;11.57;;;3.80;85.10;;;;;;5051171;28;20104;-67
2022/03/22 02:55:09;;;;;;;24.00;11.50;;;3.70;85.50;;;;;;5050565;28;20094;-67
2022/03/22 02:57:36;;;;;;;17.95;10.43;;;3.60;86.00;;;;;;5048830;28;20025;-67
2022/03/22 03:00:05;;;;;;;21.88;10.90;;;3.60;86.50;;;;;;5047356;28;20059;-67
2022/03/22 03:02:30;;;;;;;18.52;10.45;;;3.50;87.00;;;;;;5050539;28;20021;-67
2022/03/22 03:04:56;;;;;;;21.40;10.75;;;3.40;87.40;;;;;;5050259;28;20029;-66
2022/03/22 03:07:22;;;;;;;22.05;11.50;;;3.30;88.40;;;;;;5050998;28;20481;-67
2022/03/22 03:09:48;;;;;;;22.70;11.77;;;3.20;89.50;;;;;;5043094;28;20040;-67
2022/03/22 03:12:14;;;;;;;29.27;12.80;;;3.20;90.20;;;;;;5051506;28;20033;-68
2022/03/22 03:14:40;;;;;;;22.40;11.85;;;3.10;90.60;;;;;;5049218;28;20629;-69
2022/03/22 03:17:08;;;;;;;34.10;11.00;;;3.10;91.00;;;;;;5044883;28;20024;-68
2022/03/22 03:19:34;;;;;;;21.85;11.38;;;3.00;91.90;;;;;;5047752;28;20033;-67
2022/03/22 03:22:00;;;;;;;21.27;11.70;;;3.10;91.80;;;;;;5045310;28;20017;-68
2022/03/22 03:24:26;;;;;;;25.40;11.35;;;3.10;92.30;;;;;;5051058;28;20029;-67
2022/03/22 03:26:52;;;;;;;22.40;11.27;;;3.10;92.30;;;;;;5046529;28;20547;-67
2022/03/22 03:29:17;;;;;;;22.30;10.65;;;3.10;92.20;;;;;;5048209;28;20025;-67
2022/03/22 03:31:43;;;;;;;23.90;11.20;;;3.20;91.90;;;;;;5048817;28;20159;-67
2022/03/22 03:34:09;;;;;;;22.20;11.23;;;3.10;92.20;;;;;;5044870;28;20070;-68
2022/03/22 03:36:35;;;;;;;21.50;12.10;;;3.10;92.40;;;;;;5052151;28;20032;-67
2022/03/22 03:39:03;;;;;;;21.45;11.27;;;3.10;93.00;;;;;;5045441;28;20041;-66
2022/03/22 03:47:11;;;;;;;21.15;11.20;;;2.90;93.40;;;;;;5046196;28;20063;-67
2022/03/22 03:49:50;;;;;;;21.95;11.60;;;2.90;94.00;;;;;;5048790;28;20049;-68
2022/03/22 03:52:24;;;;;;;25.23;13.55;;;2.90;94.60;;;;;;5049242;28;20537;-67
2022/03/22 03:54:52;;;;;;;24.23;13.68;;;2.80;95.00;;;;;;5048148;28;20521;-67
2022/03/22 03:57:18;;;;;;;30.35;14.30;;;2.80;95.80;;;;;;5049320;28;20071;-68
2022/03/22 03:59:44;;;;;;;23.00;12.90;;;2.80;96.20;;;;;;5044669;28;20037;-67
2022/03/22 04:02:11;;;;;;;20.63;12.45;;;2.80;96.40;;;;;;5046794;28;20029;-67
2022/03/22 04:04:38;;;;;;;21.92;12.82;;;2.80;96.50;;;;;;5048153;28;20185;-67
2022/03/22 04:07:05;;;;;;;25.10;14.52;;;2.80;96.10;;;;;;5046873;28;20029;-67
2022/03/22 04:09:35;;;;;;;23.63;12.77;;;2.70;96.90;;;;;;5050592;28;20786;-66
2022/03/22 04:12:02;;;;;;;26.13;12.90;;;2.60;96.80;;;;;;5040626;28;20024;-68
2022/03/22 04:14:30;;;;;;;22.58;12.75;;;2.60;96.80;;;;;;5044304;28;20044;-67
2022/03/22 04:17:02;;;;;;;22.63;12.45;;;2.60;97.40;;;;;;5043379;28;20025;-67
2022/03/22 04:19:36;;;;;;;22.83;13.18;;;2.50;97.30;;;;;;5044269;28;20029;-67
2022/03/22 04:22:08;;;;;;;21.38;12.48;;;2.40;97.60;;;;;;5044440;28;20029;-68
2022/03/22 04:24:34;;;;;;;24.58;12.68;;;2.50;98.00;;;;;;5045861;28;20043;-67
2022/03/22 04:32:42;;;;;;;23.92;11.50;;;2.30;98.60;;;;;;5038795;28;20283;-68
2022/03/22 04:35:19;;;;;;;24.08;12.95;;;2.20;98.60;;;;;;5047071;28;20037;-68
2022/03/22 04:37:50;;;;;;;24.38;13.23;;;2.30;98.80;;;;;;5049848;28;20021;-67
2022/03/22 04:40:16;;;;;;;26.40;12.57;;;2.30;99.20;;;;;;5044102;28;20115;-68
2022/03/22 04:42:43;;;;;;;26.60;13.05;;;2.20;99.40;;;;;;5048729;28;20025;-69
2022/03/22 04:45:09;;;;;;;22.20;11.60;;;2.20;99.70;;;;;;5048164;28;20507;-67
2022/03/22 04:47:35;;;;;;;23.35;12.98;;;2.30;99.90;;;;;;5044770;28;20029;-68
2022/03/22 04:50:03;;;;;;;26.52;13.50;;;2.20;99.90;;;;;;5049522;28;20040;-67
2022/03/22 04:57:57;;;;;;;;;;;2.20;99.90;;;;;;5045738;28;20067;-67
2022/03/22 05:00:23;;;;;;;24.73;12.25;;;2.20;99.90;;;;;;5050456;28;19944;-67
2022/03/22 05:02:49;;;;;;;24.63;12.98;;;2.20;99.90;;;;;;5046569;28;20096;-67
2022/03/22 05:05:15;;;;;;;23.83;12.02;;;2.20;99.90;;;;;;5049497;28;20043;-67
2022/03/22 05:07:41;;;;;;;26.88;12.60;;;2.10;99.90;;;;;;5048708;28;20478;-65
2022/03/22 05:10:08;;;;;;;22.65;12.27;;;2.10;99.90;;;;;;5044870;28;20053;-66
2022/03/22 05:12:37;;;;;;;21.88;11.88;;;2.10;99.90;;;;;;5047934;28;20036;-66
2022/03/22 05:15:03;;;;;;;24.05;11.90;;;2.10;99.90;;;;;;5048857;28;20024;-66
2022/03/22 05:17:32;;;;;;;23.92;12.68;;;2.00;99.90;;;;;;5051086;28;20043;-67
2022/03/22 05:19:58;;;;;;;31.25;13.15;;;2.00;99.90;;;;;;5043272;28;20105;-67
2022/03/22 05:22:23;;;;;;;26.10;11.82;;;1.90;99.90;;;;;;5042502;28;20119;-67
2022/03/22 05:24:52;;;;;;;22.30;11.85;;;1.80;99.90;;;;;;5046605;28;20037;-68
2022/03/22 05:27:17;;;;;;;26.05;13.32;;;1.90;99.90;;;;;;5048200;28;20048;-67
2022/03/22 05:29:43;;;;;;;26.48;12.65;;;1.90;99.90;;;;;;5044334;28;20048;-68
2022/03/22 05:32:09;;;;;;;23.27;12.55;;;1.80;99.90;;;;;;5046787;28;20083;-68
2022/03/22 05:34:38;;;;;;;26.60;12.45;;;1.80;99.90;;;;;;5044599;28;20036;-68
2022/03/22 05:37:03;;;;;;;26.30;12.20;;;1.80;99.90;;;;;;5042958;28;20633;-67
2022/03/22 05:39:30;;;;;;;21.52;12.52;;;1.80;99.90;;;;;;5046826;28;20113;-67
2022/03/22 05:41:56;;;;;;;22.90;12.10;;;1.80;99.90;;;;;;5046898;28;20017;-67
2022/03/22 05:44:22;;;;;;;23.88;12.60;;;1.90;99.90;;;;;;5043039;28;20510;-68
2022/03/22 05:46:49;;;;;;;25.15;12.90;;;1.90;99.90;;;;;;5047868;28;20116;-67
2022/03/22 05:49:14;;;;;;;21.90;12.25;;;2.00;99.90;;;;;;5049338;28;20046;-66
2022/03/22 05:51:40;;;;;;;28.58;12.55;;;2.00;99.90;;;;;;5049491;28;20131;-67
2022/03/22 05:54:06;;;;;;;25.75;12.55;;;2.00;99.90;;;;;;5046877;28;20402;-67
2022/03/22 05:56:32;;;;;;;24.00;12.55;;;2.00;99.90;;;;;;5049678;28;20029;-67
2022/03/22 05:59:00;;;;;;;28.95;13.00;;;2.00;99.90;;;;;;5048549;28;20060;-67
2022/03/22 06:01:27;;;;;;;24.27;13.15;;;2.00;99.90;;;;;;5042440;28;20116;-67
2022/03/22 06:03:54;;;;;;;26.00;12.50;;;2.10;99.90;;;;;;5046371;28;20025;-66
2022/03/22 06:06:20;;;;;;;22.90;11.60;;;2.20;99.90;;;;;;5047528;28;20033;-67
2022/03/22 06:08:46;;;;;;;26.95;13.15;;;2.30;99.90;;;;;;5050632;28;20055;-67
2022/03/22 06:11:11;;;;;;;27.02;11.88;;;2.40;99.90;;;;;;5047616;28;20063;-66
2022/03/22 06:13:37;;;;;;;23.67;12.82;;;2.40;99.90;;;;;;5046335;28;20132;-67
2022/03/22 06:16:05;;;;;;;28.00;12.18;;;2.50;99.90;;;;;;5046759;28;20022;-67
2022/03/22 06:18:30;;;;;;;23.92;12.98;;;2.50;99.90;;;;;;5047239;28;20029;-68
2022/03/22 06:20:56;;;;;;;24.60;12.70;;;2.60;99.90;;;;;;5045268;28;20021;-68
2022/03/22 06:23:23;;;;;;;28.70;13.52;;;2.60;99.90;;;;;;5042776;28;20040;-67
2022/03/22 06:25:48;;;;;;;25.95;13.50;;;2.70;99.90;;;;;;5041452;28;20496;-67
2022/03/22 06:28:14;;;;;;;32.40;13.95;;;2.80;99.90;;;;;;5045176;28;20025;-67
2022/03/22 06:30:43;;;;;;;22.05;12.55;;;2.80;99.90;;;;;;5041645;28;20072;-66
2022/03/22 06:33:18;;;;;;;27.33;13.40;;;2.90;99.90;;;;;;5040232;28;20024;-68
2022/03/22 06:35:46;;;;;;;29.90;13.55;;;3.00;99.90;;;;;;5041962;28;20033;-68
2022/03/22 06:38:12;;;;;;;29.17;13.95;;;3.10;99.80;;;;;;5045557;28;20107;-67
2022/03/22 06:40:49;;;;;;;29.80;13.68;;;3.10;99.40;;;;;;5046690;28;20581;-68
2022/03/22 06:43:15;;;;;;;28.52;12.50;;;3.10;99.30;;;;;;5047265;28;20037;-66
2022/03/22 06:45:44;;;;;;;31.95;14.88;;;3.20;98.80;;;;;;5044857;28;20036;-67
2022/03/22 06:48:09;;;;;;;27.85;14.15;;;3.30;98.70;;;;;;5043406;28;20025;-67
2022/03/22 06:50:37;;;;;;;27.50;14.32;;;3.30;98.50;;;;;;5045398;28;20382;-68
2022/03/22 06:53:04;;;;;;;27.23;14.45;;;3.40;99.10;;;;;;5040087;28;20511;-67
2022/03/22 06:55:31;;;;;;;31.02;14.32;;;3.50;98.30;;;;;;5046362;28;20031;-67
2022/03/22 06:57:57;;;;;;;26.83;13.50;;;3.60;97.90;;;;;;5042414;28;20032;-67
2022/03/22 07:00:23;;;;;;;28.83;14.88;;;3.60;97.70;;;;;;5045419;28;20021;-67
2022/03/22 07:02:55;;;;;;;33.95;15.05;;;3.70;97.60;;;;;;5045865;28;20547;-68
2022/03/22 07:05:21;;;;;;;29.52;14.45;;;3.80;97.30;;;;;;5043044;28;20096;-68
2022/03/22 07:07:47;;;;;;;23.83;13.35;;;3.80;97.20;;;;;;5045803;28;20103;-68
2022/03/22 07:10:16;;;;;;;28.45;14.82;;;3.90;97.00;;;;;;5044360;28;20474;-68
2022/03/22 07:12:53;;;;;;;33.65;15.45;;;4.00;96.90;;;;;;5046440;28;20358;-68
2022/03/22 07:15:23;;;;;;;28.13;14.85;;;4.10;96.90;;;;;;5048947;28;20044;-68
2022/03/22 07:17:50;;;;;;;30.13;14.20;;;4.20;96.90;;;;;;5053220;28;20377;-71
2022/03/22 07:20:16;;;;;;;28.13;14.98;;;4.30;96.70;;;;;;5051676;28;20048;-68
2022/03/22 07:22:43;;;;;;;31.75;15.20;;;4.40;96.10;;;;;;5046177;28;20065;-71
2022/03/22 07:25:09;;;;;;;27.27;14.25;;;4.40;95.80;;;;;;5050332;28;20581;-68
2022/03/22 07:27:34;;;;;;;26.33;14.60;;;4.50;95.70;;;;;;5049614;28;20051;-67
2022/03/22 07:30:02;;;;;;;25.50;14.38;;;4.60;95.50;;;;;;5048702;28;20132;-67
2022/03/22 07:32:28;;;;;;;31.38;14.57;;;4.70;95.50;;;;;;5049613;28;20032;-68
2022/03/22 07:34:54;;;;;;;29.25;15.27;;;4.80;94.70;;;;;;5050426;28;20029;-68
2022/03/22 07:37:19;;;;;;;32.05;15.38;;;4.90;94.70;;;;;;5050690;28;20078;-68
2022/03/22 07:39:45;;;;;;;30.55;14.15;;;4.90;94.70;;;;;;5052587;28;20031;-68
2022/03/22 07:42:11;;;;;;;28.50;14.48;;;5.10;94.30;;;;;;5048789;28;20029;-67
2022/03/22 07:44:43;;;;;;;27.85;15.38;;;5.10;94.00;;;;;;5047449;28;20027;-67
2022/03/22 07:47:08;;;;;;;30.25;15.02;;;5.20;93.40;;;;;;5048525;28;20028;-68
2022/03/22 07:55:06;;;;;;;31.48;15.95;;;5.50;92.70;;;;;;5064008;28;20257;-68
2022/03/22 07:57:31;;;;;;;27.33;14.73;;;5.60;92.60;;;;;;5067728;28;20028;-69
2022/03/22 07:59:57;;;;;;;23.33;13.90;;;5.70;92.30;;;;;;5069025;28;20023;-69
2022/03/22 08:02:26;;;;;;;28.00;14.13;;;5.80;92.30;;;;;;5066705;28;20021;-69
2022/03/22 08:04:53;;;;;;;29.83;14.75;;;5.90;92.30;;;;;;5066182;28;20024;-68
2022/03/22 08:07:18;;;;;;;25.98;14.85;;;5.90;92.00;;;;;;5067380;28;20095;-68
2022/03/22 08:09:45;;;;;;;27.42;14.15;;;6.10;91.20;;;;;;5062965;28;20124;-68
2022/03/22 08:12:12;;;;;;;24.20;13.10;;;6.10;91.10;;;;;;5066868;28;20119;-68
2022/03/22 08:14:43;;;;;;;24.00;14.80;;;6.20;91.00;;;;;;5069942;28;20051;-68
2022/03/22 08:17:12;;;;;;;27.65;14.63;;;6.30;90.50;;;;;;5067302;28;20039;-68
2022/03/22 08:19:37;;;;;;;28.55;14.88;;;6.40;90.30;;;;;;5068219;28;20031;-68
2022/03/22 08:22:06;;;;;;;26.40;14.45;;;6.60;89.60;;;;;;5068925;28;20021;-68
2022/03/22 08:24:32;;;;;;;27.05;14.25;;;6.70;89.20;;;;;;5061803;28;20552;-68
2022/03/22 08:26:58;;;;;;;26.20;14.27;;;6.80;88.40;;;;;;5062887;28;20130;-69
2022/03/22 08:29:25;;;;;;;27.40;14.77;;;6.90;88.00;;;;;;5068442;28;20067;-69
2022/03/22 08:31:51;;;;;;;28.63;15.13;;;7.00;87.00;;;;;;5060611;28;20017;-69
2022/03/22 08:34:17;;;;;;;24.92;14.52;;;7.10;87.00;;;;;;5063079;28;20039;-69
2022/03/22 08:36:42;;;;;;;24.85;14.63;;;7.20;86.10;;;;;;5063648;28;20024;-69
2022/03/22 08:39:08;;;;;;;26.40;13.38;;;7.30;85.70;;;;;;5063959;28;20036;-69
2022/03/22 08:41:34;;;;;;;25.67;13.75;;;7.40;85.50;;;;;;5059037;28;20438;-69
2022/03/22 08:44:00;;;;;;;26.02;14.85;;;7.50;85.30;;;;;;5061092;28;20029;-69
2022/03/22 08:46:25;;;;;;;29.52;14.00;;;7.60;83.50;;;;;;5066897;28;20063;-69
2022/03/22 08:48:53;;;;;;;24.92;13.48;;;7.70;83.30;;;;;;5064937;28;20029;-70
2022/03/22 08:51:21;;;;;;;28.73;14.02;;;7.90;82.40;;;;;;5064070;28;20082;-69
2022/03/22 08:53:47;;;;;;;26.00;13.52;;;7.90;81.70;;;;;;5062488;28;20446;-70
2022/03/22 08:56:13;;;;;;;26.38;13.68;;;8.00;80.80;;;;;;5067439;28;20016;-69
2022/03/22 08:58:42;;;;;;;31.23;15.40;;;8.10;79.50;;;;;;5062232;28;20028;-69
2022/03/22 09:01:11;;;;;;;27.95;14.57;;;8.10;79.80;;;;;;5066522;28;20028;-69
2022/03/22 09:03:40;;;;;;;26.45;14.05;;;8.30;79.20;;;;;;5057083;28;20089;-70
2022/03/22 09:06:18;;;;;;;24.98;14.82;;;8.40;78.00;;;;;;5064544;28;20378;-69
2022/03/22 09:08:44;;;;;;;25.52;14.90;;;8.50;77.70;;;;;;5058627;28;20056;-69
2022/03/22 09:11:16;;;;;;;26.88;14.05;;;8.60;77.10;;;;;;5063265;28;20130;-69
2022/03/22 09:13:45;;;;;;;26.75;14.27;;;8.70;76.40;;;;;;5063814;28;20082;-69
2022/03/22 09:16:13;;;;;;;26.10;14.07;;;8.80;76.00;;;;;;5062789;28;20043;-69
2022/03/22 09:18:46;;;;;;;27.50;15.05;;;9.00;74.20;;;;;;5061140;28;20016;-69
2022/03/22 09:21:12;;;;;;;25.73;15.18;;;9.00;73.50;;;;;;5050460;28;20039;-70
2022/03/22 09:23:38;;;;;;;27.80;13.70;;;9.10;73.00;;;;;;5054285;28;20029;-68
2022/03/22 09:26:04;;;;;;;27.08;14.40;;;9.20;72.50;;;;;;5052473;28;20493;-69
2022/03/22 09:28:29;;;;;;;24.75;14.70;;;9.40;72.30;;;;;;5061072;28;20028;-69
2022/03/22 09:30:55;;;;;;;27.90;13.15;;;9.40;71.90;;;;;;5058019;28;20027;-69
2022/03/22 09:33:22;;;;;;;27.30;13.35;;;9.50;71.30;;;;;;5058147;28;20060;-69
2022/03/22 09:35:53;;;;;;;21.50;13.23;;;9.50;70.70;;;;;;5058356;28;20025;-69
2022/03/22 09:38:25;;;;;;;25.50;14.40;;;9.60;70.40;;;;;;5065665;28;20025;-69
2022/03/22 09:40:54;;;;;;;25.08;14.68;;;9.80;70.70;;;;;;5062190;28;20028;-69
2022/03/22 09:43:23;;;;;;;26.58;14.30;;;9.80;70.20;;;;;;5048712;28;20033;-69
2022/03/22 09:45:51;;;;;;;27.08;14.77;;;9.90;70.10;;;;;;5061902;28;20070;-70
2022/03/22 09:48:17;;;;;;;26.60;14.95;;;9.90;70.20;;;;;;5063547;28;20021;-69
2022/03/22 09:53:27;;;;;;;25.35;14.07;;;10.10;68.90;;;;;;5061097;28;20074;-69
2022/03/22 09:55:53;;;;;;;25.02;14.00;;;10.20;69.20;;;;;;5063927;28;20028;-69
2022/03/22 09:58:19;;;;;;;22.98;13.98;;;10.30;69.10;;;;;;5058539;28;20036;-69
2022/03/22 10:00:45;;;;;;;24.83;14.82;;;10.40;67.90;;;;;;5059073;28;20033;-69
2022/03/22 10:03:19;;;;;;;29.88;15.30;;;10.50;67.90;;;;;;5063302;28;20020;-69
2022/03/22 10:06:11;;;;;;;25.70;14.35;;;10.60;68.00;;;;;;5060894;28;20028;-70
2022/03/22 10:08:37;;;;;;;26.30;15.15;;;10.70;66.50;;;;;;5054687;28;20028;-69
2022/03/22 10:11:03;;;;;;;24.95;14.10;;;10.70;66.80;;;;;;5063505;28;20115;-70
2022/03/22 10:13:29;;;;;;;30.38;15.52;;;10.80;67.10;;;;;;5061427;28;20048;-70
2022/03/22 10:16:06;;;;;;;30.67;15.15;;;10.80;67.00;;;;;;5059593;28;20504;-69
2022/03/22 10:18:35;;;;;;;28.55;14.52;;;10.90;66.60;;;;;;5061212;28;20028;-69
2022/03/22 10:21:03;;;;;;;27.98;14.68;;;11.00;66.70;;;;;;5061924;28;20415;-69
2022/03/22 10:23:31;;;;;;;26.63;15.18;;;11.10;66.80;;;;;;5062607;28;20028;-68
2022/03/22 10:26:07;;;;;;;25.75;14.45;;;11.10;66.70;;;;;;5061471;28;20389;-69
2022/03/22 10:28:34;;;;;;;28.83;14.57;;;11.10;66.20;;;;;;5063570;28;20029;-69
2022/03/22 10:31:01;;;;;;;25.63;15.20;;;11.30;66.70;;;;;;5066619;28;20024;-70
2022/03/22 10:33:26;;;;;;;26.58;14.02;;;11.40;66.00;;;;;;5063174;28;20346;-68
2022/03/22 10:35:52;;;;;;;26.27;14.82;;;11.30;65.60;;;;;;5066815;28;20130;-70
2022/03/22 10:38:19;;;;;;;27.02;15.15;;;11.40;66.20;;;;;;5060502;28;20024;-70
2022/03/22 10:40:46;;;;;;;28.20;15.30;;;11.60;65.80;;;;;;5064010;28;20028;-69
2022/03/22 10:43:22;;;;;;;23.95;13.82;;;11.70;65.20;;;;;;5062064;28;20024;-68
2022/03/22 10:45:48;;;;;;;26.13;14.88;;;11.60;65.00;;;;;;5068135;28;20031;-69
2022/03/22 10:48:28;;;;;;;36.65;16.25;;;11.70;64.50;;;;;;5064319;28;20020;-68
2022/03/22 10:50:59;;;;;;;24.90;14.07;;;11.90;64.10;;;;;;5063020;28;20025;-69
2022/03/22 10:53:27;;;;;;;28.77;16.10;;;11.80;63.70;;;;;;5063066;28;20032;-69
2022/03/22 10:55:53;;;;;;;30.00;14.38;;;11.90;63.50;;;;;;5075779;28;20024;-68
2022/03/22 10:58:21;;;;;;;26.90;14.93;;;11.90;63.40;;;;;;5071091;28;20035;-68
2022/03/22 11:00:49;;;;;;;27.35;15.38;;;12.00;63.10;;;;;;5068161;28;20028;-67
2022/03/22 11:03:18;;;;;;;25.20;14.63;;;12.00;62.70;;;;;;5063415;28;20145;-68
2022/03/22 11:05:51;;;;;;;26.85;14.68;;;12.00;63.00;;;;;;5067408;28;20112;-65
2022/03/22 11:08:21;;;;;;;24.00;14.35;;;12.10;65.20;;;;;;5070694;28;21244;-66
2022/03/22 11:10:51;;;;;;;28.33;15.05;;;12.20;63.60;;;;;;5064099;28;20021;-65
2022/03/22 11:13:17;;;;;;;28.77;15.77;;;12.30;63.00;;;;;;5065732;28;20025;-66
2022/03/22 11:15:48;;;;;;;33.47;15.57;;;12.30;63.00;;;;;;5068949;28;20054;-66
2022/03/22 11:18:15;;;;;;;26.25;13.77;;;12.40;62.70;;;;;;5062378;28;20116;-66
2022/03/22 11:20:59;;;;;;;29.35;15.40;;;12.50;62.00;;;;;;5067174;28;20044;-67
2022/03/22 11:23:27;;;;;;;25.60;14.32;;;12.60;62.80;;;;;;5066482;28;20044;-66
2022/03/22 11:25:53;;;;;;;26.60;14.75;;;12.70;63.10;;;;;;5069158;28;20497;-67
2022/03/22 11:28:23;;;;;;;25.08;14.48;;;12.80;62.00;;;;;;5068062;28;20389;-67
2022/03/22 11:30:52;;;;;;;28.58;14.57;;;12.80;61.10;;;;;;5067389;28;20025;-67
2022/03/22 11:36:13;;;;;;;25.05;14.73;;;12.80;59.70;;;;;;5062148;28;20038;-69
2022/03/22 11:38:42;;;;;;;27.25;13.90;;;12.70;60.00;;;;;;5062366;28;20058;-70
2022/03/22 11:44:22;;;;;;;25.17;14.00;;;12.90;58.50;;;;;;5068835;28;20139;-69
2022/03/22 11:47:04;;;;;;;27.02;14.32;;;13.00;58.10;;;;;;5069248;28;20028;-69
2022/03/22 11:49:30;;;;;;;27.08;14.40;;;13.00;57.60;;;;;;5070067;28;20036;-69
2022/03/22 11:52:15;;;;;;;25.13;13.73;;;12.90;56.90;;;;;;5067872;28;20039;-69
2022/03/22 11:55:00;;;;;;;24.35;14.43;;;13.00;56.40;;;;;;5070236;28;20039;-70
2022/03/22 11:57:27;;;;;;;23.83;12.70;;;13.00;56.10;;;;;;5067842;28;20104;-68
2022/03/22 11:59:53;;;;;;;25.27;12.68;;;13.10;55.60;;;;;;5068085;28;20485;-69
2022/03/22 12:02:30;;;;;;;23.13;13.77;;;13.20;55.30;;;;;;5061556;28;20028;-69
2022/03/22 12:04:57;;;;;;;25.27;13.93;;;13.20;55.10;;;;;;5068575;28;20139;-68
2022/03/22 12:07:33;;;;;;;22.98;13.50;;;13.40;54.20;;;;;;5063784;28;20475;-69
2022/03/22 12:10:03;;;;;;;24.50;13.40;;;13.30;53.60;;;;;;5063686;28;20424;-69
2022/03/22 12:12:33;;;;;;;22.75;12.55;;;13.30;53.80;;;;;;5069131;28;20127;-69
2022/03/22 12:15:00;;;;;;;26.02;13.52;;;13.30;53.80;;;;;;5070225;28;20107;-69
2022/03/22 12:17:26;;;;;;;25.30;12.63;;;13.30;55.10;;;;;;5067386;28;20060;-69
2022/03/22 12:19:52;;;;;;;25.90;13.25;;;13.40;54.60;;;;;;5068362;28;20020;-70
2022/03/22 12:22:22;;;;;;;24.48;12.10;;;13.50;54.70;;;;;;5065667;28;20050;-69
2022/03/22 12:24:51;;;;;;;18.73;11.82;;;13.60;53.20;;;;;;5068478;28;20114;-70
2022/03/22 12:27:17;;;;;;;21.77;11.65;;;13.60;52.60;;;;;;5065524;28;20064;-70
2022/03/22 12:29:44;;;;;;;23.17;10.85;;;13.70;54.20;;;;;;5064762;28;20071;-70
2022/03/22 12:32:15;;;;;;;17.90;10.32;;;13.70;50.70;;;;;;5065394;28;20024;-70
2022/03/22 12:34:41;;;;;;;19.60;11.95;;;13.90;52.90;;;;;;5067405;28;20377;-71
2022/03/22 12:37:08;;;;;;;20.85;11.43;;;14.00;53.00;;;;;;5065570;28;20036;-70
2022/03/22 12:39:38;;;;;;;16.95;10.63;;;14.10;53.40;;;;;;5067445;28;20107;-71
2022/03/22 12:42:05;;;;;;;17.75;11.48;;;14.20;50.00;;;;;;5061745;28;20050;-70
2022/03/22 12:44:31;;;;;;;18.63;10.10;;;14.30;51.30;;;;;;5070282;28;20036;-70
2022/03/22 12:46:58;;;;;;;20.98;9.55;;;14.40;48.30;;;;;;5070993;28;20024;-69
2022/03/22 12:49:24;;;;;;;17.48;9.40;;;14.50;48.10;;;;;;5069015;28;20036;-70
2022/03/22 12:51:50;;;;;;;18.65;9.23;;;14.50;48.80;;;;;;5065931;28;20073;-70
2022/03/22 12:54:17;;;;;;;19.45;8.77;;;14.60;47.30;;;;;;5065796;28;20428;-71
2022/03/22 12:56:47;;;;;;;17.85;9.48;;;14.60;49.70;;;;;;5058703;28;20035;-68
2022/03/22 12:59:21;;;;;;;23.17;10.20;;;14.60;46.90;;;;;;5060633;28;20081;-71
2022/03/22 13:02:00;;;;;;;19.38;10.25;;;14.50;46.40;;;;;;5065086;28;20501;-71
2022/03/22 13:04:32;;;;;;;17.90;9.73;;;14.50;45.80;;;;;;5067386;28;20035;-72
2022/03/22 13:06:59;;;;;;;16.20;9.27;;;14.60;46.50;;;;;;5062206;28;20029;-70
2022/03/22 13:12:13;;;;;;;18.33;10.25;;;14.70;43.10;;;;;;5058198;28;20035;-69
2022/03/22 13:17:30;;;;;;;20.85;12.15;;;14.70;44.70;;;;;;5069577;28;20069;-68
2022/03/22 13:20:02;;;;;;;19.50;11.23;;;14.70;45.00;;;;;;5072725;28;20550;-68